Timeline UpdatesTrip UpdatesNews PostsPvt PostsTravel TipsAdmin PostsConv PostsFollowed PostsChat RequestsBlog PostsPNR Posts

Disclaimer
Search
 
 
Mon Jul 28, 2014 09:45:48 ISTHomeTrainsΣChainsAtlasPNRForumGalleryNewsFAQTripsMembersLoginFeedback
No Recent News for this Train
Other Trains in the News **new
Latest...
Monsoon TT Updated; W.e.f. 1st July to 30th September 2014
Mon Jun 30, 2014 (05:01PM)
⇐ Return Journey: Train# 16337

16338/Ernakulam-Okha Express

Jun 30 (5:01PM)
Change Departure Station:
Change Arrival Station:
Post a Train Travel TipPost a Train Travel Tip **new
Post a Comment/Question/Picture/VideoPost a Comment/Question/Picture/Video
Pantry/Catering
✓ Pantry Car Avbl
✓ Catering Avbl
RSA - Rake Sharing
12683/84 Ernakulam Bangalore Express
Rake/Coach Composition
LOCO-SLR-GEN-GEN-S1-S2-S3-S4-S5-S6-S7-S8-S9-S10-PC-S11-S12-B1-B2-A1-GEN-SLR.; Author: Mahesh Kavthankar.; ; Entry# Re# 276092-1.
Loco
ERS WDM3A
News    PNR    Forum    Time-Table    Availability    Fare Chart    Map    Arr/Dep History    Trips    Gallery    ΣChains    X/O    Timeline    
Travel Time: 2h 38m    3 halts    Distance: 119 km    Avg Speed: 45 km/hr
Type: Mail/Express
Zone: SR/Southern
Departs @ 20:05 (Avg 6m late)
Platform# 1
   W F 
Ernakulam Junction (South)/ERS 
Arrives @ 22:43 (Avg 26m late)
Platform# ???
   W F 
Pattambi/PTB 

3 halts. 25 intermediate Stations between Ernakulam Junction (South) and Pattambi

Show ALL intermediate Stations  Show Old Time-Table

#CodeStation NameX/OArrivesAvgDepartsAvgHaltPFDay#KmSpeedElevZoneAddress
1ERS»Ernakulam Junction (South) (6)»  -20:05+6110.0653mSRErnakulam 682016, Kerala
2AWYAluva (3)  20:23+1620:25+172m--119.46112mSRPh: 0484-2624141, Kerala
3TCRThrissur (4)  21:19+2021:22+213m2174.0346mSRThrissur Tel: 0487 2423150, Kerala
4SRRShoranur Junction (7)X  22:20+1822:30+2410m61106.95326mSRShoranur ph.no 0466-2222913, Kerala
5PTB•Pattambi (2)•  22:43+2622:45+252m--1118.56221mSRPattambi, Kerala
6KTUKuttippuram (2)X  23:03+2723:05+272m--1137.05017mSRKuttippuram, Kerala
7TIRTirur (3)  23:23+2623:25+272m--1152.0749mSRTel: 0494 2422240, Kerala
8PGIParappangadi (2)X  23:38+3023:40+302m--1168.16519mSRParappanangadi, Kerala
9FKFerok (2)  23:54+3323:55+341m--1183.32419mSRFeroke, Kerala
10CLTKozhikode Main (4)X  00:20+2300:25+255m42193.36311mSRCalicut Tel: 0495 2701234, Kerala
11QLDKoyilandy (3)  00:48+2900:50+292m--2217.67711mSRQuilandi, Kerala
12BDJVadakara (2)  01:07+2801:09+292m22239.56611mSRCalicut / Station Ph No : 0496-2524254, Kerala
13TLYThalassery (2)  01:29+3101:30+331m62261.6419mSRKannur, Kerala
14CANKannur Main (3)  02:00+2702:05+275m12282.36714mSRKannur Tel: 0497 2705555, Kerala
15KPQKannapuram (2)  02:18+2802:20+272m12296.8649mSRKannur District, Kerala
16PAYPayyanur (3)  02:38+2502:40+252m--2316.0530mSRKannur District, Kerala
17KZEKanhangad (3)  03:13+2803:15+282m--2345.26015mSRKanhangad, Kerala
18KGQKasaragod (3)  03:38+1803:40+192m--2368.44218mSRTel: 04994 220800, Kerala
19MAJNMangalore Junction (3)X  04:50+305:00+1510m12417.43124mSRMangalore 575001, Karnataka
20SLSurathkal (1)  05:40+705:42+102m12438.07022mKRSurathkal, Karnataka
21UDUdupi (2)  06:18+1306:20+152m--2479.88018mKRUdupi, Karnataka
22KUDAKundapura (2)X  06:44+2606:46+272m12511.85313mKRBasrur, Karnataka
23BYNRByndoor Mookambika Road (1)  07:24+207:26+22m12545.45110mKRUdupi Dist. 576214, Karnataka
24BTJLBhatkal (2)  07:44+2907:46+372m--2560.65316mKRBhatkal - 581320, Karnataka
25HNAHonnavar (2)  08:32+3508:34+382m--2601.5474mKRUttara Kannada Dist, Karnataka
26KAWRKarwar (2)  10:02+3210:04+372m--2670.44314mKRKarwar, Karnataka
27MAOMadgaon Junction (3)  11:30+2011:40+2310m22731.75211mKRMadgaon 403601, Goa
28THVMThivim (2)  12:32+3312:34+352m12776.65521mKRThivim - 403502, Goa
29KKWKankavali (2)  14:00+5114:02+412m12855.26845mKRKankavli - 416602, Maharashtra
30RNRatnagiri (3)X  15:40+2715:45+325m22966.650129mKRRatnagiri 415612, Maharashtra
31MNIMangaon (2)  19:12+3319:14+342m121139.55112mKRMangaon - 402104, Maharashtra
32PNVLPanvel Junction (7)X  21:20+2821:25+345m621245.7-10mCRPanvel, Maharashtra
33BIRDBhiwandi Road (4)X  22:23+3322:25+362m421587.03626mCRBhiwandi, Maharashtra
34BSRVasai Road (7)  23:10+2123:15+265m621614.3607mWRThane-401202, Maharashtra
35BORBoisar (3)00:06+3000:08+302m--31665.17217mWRBoisar Tel.no-02525-266626, Maharashtra
36BLValsad (3)X  01:28+3501:30+402m131761.64815mWRValsad, Gujarat
37NVSNavsari (3)X  02:19+2302:20+231m131800.73614mWRNavsari, Gujarat
38STSurat (4)  03:10+1103:22+1212m131830.37519mWRSurat 395001, Gujarat
39AKVAnkleshwar Junction (4)XO  04:02+2504:04+252m131880.27019mWRAnkleshwar, Gujarat
40BRCVadodara Junction (7)X  05:12+3305:22+3410m231960.16736mWRVadodara 390005, Gujarat
41ANNDAnand Junction (6)X  05:54+2:1805:56+2:182m231995.86144mWRAnand, Gujarat
42MANManinagar (2)  06:56+806:58+82m132056.71150mWRAhmadabad, Gujarat
43ADIAhmedabad Junction (12)  07:15+4107:35+3520m132059.96351mWRAhmedabad, Gujarat
44VGViramgam Junction (5)  08:37+3008:39+292m132125.34729mWRViramgam, Gujarat
45SUNRSurendranagar Junction (4)  10:03+3310:05+342m--32190.95472mWRSurendra Nagar, Gujarat
46RJTRajkot Junction (5)X  12:13+3312:28+3615m232306.958128mWRRajkot, Gujarat
47HAPAHapa (3)  13:46+4113:48+522m--32382.83716mWRJamnagar, Gujarat
48JAMJamnagar (2)X  14:02+5014:05+543m--32391.54814mWRJamnagar, Gujarat
49KMBLKhambhalia  15:13+5115:15+512m--32445.86949mWRKhambhalia, Gujarat
50DWKDwarka (2)  16:28+4116:30+442m--32529.83114mWRDwarka, Gujarat
51OKHAOkha (3)  17:25+12-132558.5-5mWROkha, Gujarat
Scroll to Top
Scroll to Bottom